createdAt,value
2022-08-05T00:01:27.773Z,19.46
2022-08-05T00:06:33.307Z,19.39
2022-08-05T00:11:48.514Z,19.30
2022-08-05T00:17:01.885Z,19.19
2022-08-05T00:22:06.492Z,19.07
2022-08-05T00:27:14.123Z,18.97
2022-08-05T00:32:35.160Z,18.88
2022-08-05T00:37:52.504Z,18.80
2022-08-05T00:42:59.456Z,18.73
2022-08-05T00:48:05.696Z,18.66
2022-08-05T00:53:45.383Z,18.60
2022-08-05T00:58:35.630Z,18.54
2022-08-05T01:03:40.221Z,18.47
2022-08-05T01:08:47.372Z,18.41
2022-08-05T01:13:59.967Z,18.34
2022-08-05T01:19:19.494Z,18.27
2022-08-05T01:24:46.885Z,18.21
2022-08-05T01:29:55.583Z,18.15
2022-08-05T01:35:51.806Z,18.09
2022-08-05T01:40:48.927Z,19.01
2022-08-05T01:45:56.768Z,21.37
2022-08-05T01:51:00.197Z,20.88
2022-08-05T01:58:10.466Z,19.76
2022-08-05T02:01:42.203Z,19.15
2022-08-05T02:06:45.304Z,18.75
2022-08-05T02:12:11.420Z,18.45
2022-08-05T02:18:15.169Z,18.19
2022-08-05T02:22:50.339Z,17.98
2022-08-05T02:27:58.213Z,17.84
2022-08-05T02:33:05.032Z,18.68
2022-08-05T02:38:13.329Z,21.21
2022-08-05T02:43:25.961Z,20.70
2022-08-05T02:48:30.374Z,19.53
2022-08-05T02:53:35.926Z,18.86
2022-08-05T02:58:44.357Z,18.44
2022-08-05T03:04:11.833Z,18.13
2022-08-05T03:09:17.544Z,18.89
2022-08-05T03:14:21.298Z,21.18
2022-08-05T03:19:33.793Z,20.68
2022-08-05T03:24:43.389Z,19.51
2022-08-05T03:30:08.264Z,18.88
2022-08-05T03:35:13.746Z,18.52
2022-08-05T03:40:24.175Z,19.10
2022-08-05T03:45:55.302Z,21.50
2022-08-05T03:52:38.248Z,21.20
2022-08-05T03:56:54.748Z,19.97
2022-08-05T04:02:04.267Z,19.46
2022-08-05T04:07:11.156Z,19.17
2022-08-05T04:12:24.612Z,18.98
2022-08-05T04:17:55.527Z,18.88
2022-08-05T04:22:51.882Z,18.86
2022-08-05T04:27:57.583Z,19.80
2022-08-05T04:33:04.747Z,22.36
2022-08-05T04:38:07.675Z,22.35
2022-08-05T04:43:11.066Z,21.60
2022-08-05T04:48:27.422Z,23.86
2022-08-05T04:53:33.610Z,27.83
2022-08-05T04:58:41.303Z,31.25
2022-08-05T05:03:46.533Z,33.84
2022-08-05T05:08:51.548Z,35.43
2022-08-05T05:13:56.047Z,34.06
2022-08-05T05:19:18.860Z,31.88
2022-08-05T05:24:23.023Z,30.15
2022-08-05T05:30:04.998Z,28.99
2022-08-05T05:35:08.703Z,28.19
2022-08-05T05:40:15.544Z,27.63
2022-08-05T05:45:19.415Z,27.16
2022-08-05T05:50:23.002Z,26.85
2022-08-05T05:55:52.125Z,26.80
2022-08-05T06:00:51.954Z,26.69
2022-08-05T06:05:55.674Z,26.62
2022-08-05T06:11:01.671Z,26.62
2022-08-05T06:16:30.749Z,26.70
2022-08-05T06:21:36.472Z,26.87
2022-08-05T06:26:52.319Z,27.10
2022-08-05T06:31:56.093Z,27.51
2022-08-05T06:37:02.888Z,29.23
2022-08-05T06:42:07.207Z,33.13
2022-08-05T06:47:30.000Z,36.53
2022-08-05T06:52:37.982Z,39.14
2022-08-05T06:58:03.524Z,40.87
2022-08-05T07:03:07.514Z,42.33
2022-08-05T07:08:12.887Z,43.53
2022-08-05T07:13:56.687Z,44.25
2022-08-05T07:18:59.504Z,45.11
2022-08-05T07:24:02.484Z,45.50
2022-08-05T07:29:06.004Z,45.14
2022-08-05T07:34:13.885Z,43.60
2022-08-05T07:39:24.664Z,42.88
2022-08-05T07:44:40.435Z,43.34
2022-08-05T07:49:54.227Z,43.85
2022-08-05T07:54:58.483Z,44.25
2022-08-05T08:00:02.250Z,44.54
2022-08-05T08:05:06.306Z,44.87
2022-08-05T08:10:09.625Z,44.96
2022-08-05T08:15:15.536Z,44.50
2022-08-05T08:20:44.402Z,44.05
2022-08-05T08:26:00.698Z,43.79
2022-08-05T08:31:07.019Z,43.49
2022-08-05T08:36:39.241Z,43.23
2022-08-05T08:41:50.730Z,42.66
2022-08-05T08:47:03.293Z,42.43
2022-08-05T08:52:14.468Z,42.41
2022-08-05T08:57:17.970Z,42.04
2022-08-05T09:02:26.929Z,41.61
2022-08-05T09:07:39.889Z,41.34
2022-08-05T09:12:53.270Z,41.18
2022-08-05T09:17:56.462Z,41.15
2022-08-05T09:23:05.071Z,41.21
2022-08-05T09:28:21.254Z,41.42
2022-08-05T09:33:24.673Z,40.29
2022-08-05T09:38:38.228Z,38.34
2022-08-05T09:43:42.872Z,36.77
2022-08-05T09:48:55.108Z,35.70
2022-08-05T09:59:37.608Z,34.00
2022-08-05T10:04:44.572Z,33.52
2022-08-05T10:10:14.443Z,33.18
2022-08-05T10:15:23.447Z,32.96
2022-08-05T10:20:26.474Z,32.74
2022-08-05T10:25:30.784Z,32.64
2022-08-05T10:32:46.947Z,32.59
2022-08-05T10:36:04.004Z,32.53
2022-08-05T10:41:46.469Z,32.46
2022-08-05T10:46:56.567Z,32.39
2022-08-05T10:52:02.601Z,32.28
2022-08-05T10:57:06.536Z,32.14
2022-08-05T11:02:14.449Z,32.00
2022-08-05T11:08:02.606Z,31.90
2022-08-05T11:13:54.811Z,31.83
2022-08-05T11:20:10.433Z,31.77
2022-08-05T11:26:06.106Z,31.70
2022-08-05T11:30:58.547Z,31.62
2022-08-05T11:36:08.669Z,31.57
2022-08-05T11:41:58.330Z,31.54
2022-08-05T11:46:58.728Z,31.47
2022-08-05T11:52:11.731Z,31.45
2022-08-05T11:57:25.861Z,31.39
2022-08-05T12:02:40.203Z,31.40
2022-08-05T12:08:08.864Z,31.37
2022-08-05T12:13:14.638Z,31.35
2022-08-05T12:18:32.781Z,31.34
2022-08-05T12:23:36.526Z,31.36
2022-08-05T12:28:46.568Z,31.38
2022-08-05T12:33:55.418Z,31.41
2022-08-05T12:38:59.755Z,31.45
2022-08-05T12:44:11.592Z,31.43
2022-08-05T12:49:19.024Z,31.46
2022-08-05T12:54:32.463Z,31.50
2022-08-05T13:01:58.203Z,31.50
2022-08-05T13:05:14.356Z,31.48
2022-08-05T13:10:19.650Z,31.51
2022-08-05T13:15:41.259Z,31.59
2022-08-05T13:20:52.456Z,31.64
2022-08-05T13:25:59.007Z,31.67
2022-08-05T13:31:11.227Z,31.74
2022-08-05T13:36:18.842Z,31.75
2022-08-05T13:41:22.548Z,31.78
2022-08-05T13:47:01.984Z,31.77
2022-08-05T13:52:29.185Z,31.69
2022-08-05T13:57:49.781Z,31.61
2022-08-05T14:02:56.962Z,31.52
2022-08-05T14:08:05.910Z,31.34
2022-08-05T14:13:16.520Z,31.14
2022-08-05T14:18:23.463Z,30.94
2022-08-05T14:23:28.806Z,30.86
2022-08-05T14:28:52.056Z,30.92
2022-08-05T14:33:59.122Z,31.06
2022-08-05T14:39:05.956Z,31.17
2022-08-05T14:44:21.775Z,31.27
2022-08-05T14:49:24.945Z,31.22
2022-08-05T14:54:52.650Z,31.11
2022-08-05T14:59:56.615Z,31.00
2022-08-05T15:04:59.781Z,30.94
2022-08-05T15:10:04.168Z,30.93
2022-08-05T15:15:15.884Z,30.98
2022-08-05T15:20:24.911Z,31.09
2022-08-05T15:25:51.729Z,31.14
2022-08-05T15:30:53.979Z,31.14
2022-08-05T15:35:56.906Z,31.11
2022-08-05T15:41:23.261Z,31.05
2022-08-05T15:46:24.740Z,30.97
2022-08-05T15:52:12.541Z,30.90
2022-08-05T15:56:52.336Z,30.81
2022-08-05T16:01:55.263Z,30.67
2022-08-05T16:07:02.897Z,30.52
2022-08-05T16:12:09.508Z,30.35
2022-08-05T16:17:15.076Z,30.17
2022-08-05T16:22:27.731Z,30.02
2022-08-05T16:27:59.764Z,29.83
2022-08-05T16:33:04.325Z,29.63
2022-08-05T16:38:16.456Z,29.49
2022-08-05T16:43:32.334Z,29.40
2022-08-05T16:48:37.860Z,29.32
2022-08-05T16:54:04.181Z,29.25
2022-08-05T16:59:09.947Z,29.17
2022-08-05T17:04:12.939Z,29.10
2022-08-05T17:09:18.227Z,28.99
2022-08-05T17:14:37.496Z,28.81
2022-08-05T17:19:45.623Z,28.60
2022-08-05T17:24:56.890Z,28.42
2022-08-05T17:30:03.407Z,28.27
2022-08-05T17:35:07.497Z,28.13
2022-08-05T17:40:14.367Z,28.00
2022-08-05T17:45:20.715Z,27.86
2022-08-05T17:50:30.400Z,27.72
2022-08-05T17:55:37.893Z,27.56
2022-08-05T18:00:47.251Z,27.40
2022-08-05T18:05:54.348Z,27.24
2022-08-05T18:10:59.257Z,27.08
2022-08-05T18:16:02.160Z,26.90
2022-08-05T18:21:05.508Z,26.73
2022-08-05T18:26:18.125Z,26.56
2022-08-05T18:31:24.308Z,26.39
2022-08-05T18:36:28.326Z,26.22
2022-08-05T18:41:58.007Z,26.05
2022-08-05T18:46:54.827Z,25.86
2022-08-05T18:52:17.921Z,25.69
2022-08-05T18:57:50.369Z,25.49
2022-08-05T19:03:03.180Z,25.34
2022-08-05T19:08:13.739Z,25.20
2022-08-05T19:13:19.870Z,25.08
2022-08-05T19:18:23.341Z,24.98
2022-08-05T19:24:07.685Z,24.88
2022-08-05T19:28:49.662Z,24.74
2022-08-05T19:33:56.439Z,24.60
2022-08-05T19:39:01.046Z,24.47
2022-08-05T19:44:13.217Z,24.34
2022-08-05T19:49:17.771Z,24.20
2022-08-05T19:54:25.606Z,24.07
2022-08-05T19:59:56.005Z,23.94
2022-08-05T20:04:58.909Z,23.82
2022-08-05T20:10:13.641Z,23.73
2022-08-05T20:15:23.231Z,23.64
2022-08-05T20:20:46.826Z,23.54
2022-08-05T20:25:52.214Z,23.45
2022-08-05T20:30:56.539Z,23.34
2022-08-05T20:36:00.161Z,23.24
2022-08-05T20:41:04.635Z,23.15
2022-08-05T20:46:18.624Z,23.08
2022-08-05T20:51:28.557Z,23.01
2022-08-05T20:56:35.454Z,22.99
2022-08-05T21:01:45.421Z,22.99
2022-08-05T21:06:48.697Z,23.00
2022-08-05T21:12:09.990Z,23.02
2022-08-05T21:17:14.082Z,23.06
2022-08-05T21:22:21.900Z,23.10
2022-08-05T21:27:27.497Z,23.14
2022-08-05T21:32:31.332Z,23.17
2022-08-05T21:37:41.343Z,23.17
2022-08-05T21:42:45.784Z,23.17
2022-08-05T21:47:56.144Z,23.31
2022-08-05T21:53:04.459Z,23.69
2022-08-05T21:58:12.601Z,25.16
2022-08-05T22:03:15.681Z,25.98
2022-08-05T22:08:24.048Z,24.84
2022-08-05T22:14:06.358Z,24.17
2022-08-05T22:18:52.493Z,24.06
2022-08-05T22:24:40.205Z,25.13
2022-08-05T22:29:37.832Z,24.19
2022-08-05T22:34:40.778Z,24.36
2022-08-05T22:39:43.750Z,25.12
2022-08-05T22:44:48.476Z,24.14
2022-08-05T22:50:18.410Z,24.01
2022-08-05T22:55:22.318Z,25.56
2022-08-05T23:00:26.472Z,24.75
2022-08-05T23:05:36.130Z,24.60
2022-08-05T23:10:39.999Z,25.67
2022-08-05T23:15:43.131Z,24.30
2022-08-05T23:20:53.247Z,24.67
2022-08-05T23:25:56.638Z,24.98
2022-08-05T23:31:14.818Z,24.40
2022-08-05T23:36:20.606Z,25.86
2022-08-05T23:41:23.633Z,25.93
2022-08-05T23:46:26.877Z,24.73
2022-08-05T23:51:52.877Z,25.94
2022-08-05T23:57:03.498Z,25.95
